createdAt,value
2018-08-07T00:00:10.765Z,92.98
2018-08-07T00:02:40.139Z,93.00
2018-08-07T00:05:09.116Z,92.78
2018-08-07T00:07:38.382Z,93.69
2018-08-07T00:10:08.536Z,93.34
2018-08-07T00:12:37.902Z,93.00
2018-08-07T00:15:09.388Z,92.95
2018-08-07T00:17:38.194Z,93.50
2018-08-07T00:20:07.573Z,93.56
2018-08-07T00:22:36.523Z,93.39
2018-08-07T00:25:06.432Z,93.55
2018-08-07T00:27:35.102Z,93.71
2018-08-07T00:30:04.398Z,94.75
2018-08-07T00:32:33.102Z,94.84
2018-08-07T00:35:01.808Z,94.49
2018-08-07T00:37:30.563Z,94.18
2018-08-07T00:39:59.327Z,94.33
2018-08-07T00:42:28.356Z,93.83
2018-08-07T00:44:57.024Z,94.25
2018-08-07T00:47:25.709Z,94.04
2018-08-07T00:49:54.289Z,94.28
2018-08-07T00:52:23.095Z,94.79
2018-08-07T00:54:51.772Z,94.87
2018-08-07T00:57:20.423Z,94.70
2018-08-07T00:59:49.121Z,95.19
2018-08-07T01:02:18.311Z,95.38
2018-08-07T01:04:47.233Z,95.48
2018-08-07T01:07:15.886Z,95.85
2018-08-07T01:09:44.711Z,95.82
2018-08-07T01:12:13.363Z,95.95
2018-08-07T01:14:43.682Z,95.98
2018-08-07T01:17:12.628Z,95.55
2018-08-07T01:19:41.583Z,95.88
2018-08-07T01:22:11.182Z,95.75
2018-08-07T01:24:39.809Z,95.81
2018-08-07T01:27:08.576Z,96.06
2018-08-07T01:29:37.429Z,96.21
2018-08-07T01:32:06.152Z,95.77
2018-08-07T01:34:35.397Z,96.29
2018-08-07T01:37:03.968Z,95.97
2018-08-07T01:39:32.649Z,96.21
2018-08-07T01:42:02.062Z,96.30
2018-08-07T01:44:30.906Z,96.33
2018-08-07T01:46:59.682Z,97.08
2018-08-07T01:49:28.374Z,97.59
2018-08-07T01:51:57.232Z,97.05
2018-08-07T01:54:26.136Z,97.15
2018-08-07T01:56:55.272Z,97.06
2018-08-07T01:59:24.002Z,96.89
2018-08-07T02:01:52.794Z,97.05
2018-08-07T02:04:22.118Z,97.73
2018-08-07T02:06:51.596Z,97.42
2018-08-07T02:09:20.570Z,97.49
2018-08-07T02:11:49.484Z,98.03
2018-08-07T02:14:19.003Z,97.77
2018-08-07T02:16:48.318Z,97.25
2018-08-07T02:19:17.081Z,97.21
2018-08-07T02:21:45.711Z,97.35
2018-08-07T02:24:15.033Z,97.68
2018-08-07T02:26:44.067Z,98.24
2018-08-07T02:29:13.019Z,97.65
2018-08-07T02:31:41.740Z,97.51
2018-08-07T02:34:10.792Z,97.66
2018-08-07T02:36:39.964Z,97.83
2018-08-07T02:39:10.231Z,98.44
2018-08-07T02:41:39.409Z,98.56
2018-08-07T02:44:08.537Z,98.70
2018-08-07T02:46:37.485Z,98.60
2018-08-07T02:49:06.166Z,98.98
2018-08-07T02:51:35.312Z,99.31
2018-08-07T02:54:04.483Z,98.65
2018-08-07T02:56:33.093Z,98.09
2018-08-07T02:59:01.699Z,98.52
2018-08-07T03:01:30.467Z,98.58
2018-08-07T03:03:59.422Z,98.93
2018-08-07T03:06:28.135Z,99.14
2018-08-07T03:08:56.900Z,98.88
2018-08-07T03:11:25.547Z,98.84
2018-08-07T03:13:55.113Z,98.99
2018-08-07T03:16:24.660Z,98.49
2018-08-07T03:18:53.873Z,98.44
2018-08-07T03:21:23.214Z,98.62
2018-08-07T03:23:51.964Z,98.75
2018-08-07T03:26:21.167Z,98.70
2018-08-07T03:28:50.644Z,98.22
2018-08-07T03:31:19.367Z,98.63
2018-08-07T03:33:48.278Z,98.94
2018-08-07T03:36:17.467Z,99.29
2018-08-07T03:38:46.082Z,99.62
2018-08-07T03:41:14.892Z,99.49
2018-08-07T03:43:43.524Z,99.52
2018-08-07T03:46:12.367Z,99.66
2018-08-07T03:48:41.832Z,99.93
2018-08-07T03:51:10.677Z,99.02
2018-08-07T03:53:39.231Z,99.29
2018-08-07T03:56:07.964Z,99.06
2018-08-07T03:58:38.287Z,99.56
2018-08-07T04:01:07.692Z,99.46
2018-08-07T04:03:36.978Z,99.95
2018-08-07T04:06:05.742Z,99.76
2018-08-07T04:08:34.409Z,99.13
2018-08-07T04:11:03.608Z,99.15
2018-08-07T04:13:35.045Z,99.35
2018-08-07T04:16:04.049Z,99.37
2018-08-07T04:18:33.464Z,99.17
2018-08-07T04:21:02.488Z,98.68
2018-08-07T04:23:31.418Z,98.69
2018-08-07T04:26:00.191Z,98.43
2018-08-07T04:28:29.167Z,97.81
2018-08-07T04:30:58.318Z,97.90
2018-08-07T04:33:27.265Z,97.86
2018-08-07T04:35:55.982Z,97.86
2018-08-07T04:38:25.034Z,97.46
2018-08-07T04:40:53.959Z,97.50
2018-08-07T04:43:22.536Z,96.60
2018-08-07T04:45:51.398Z,96.62
2018-08-07T04:48:20.089Z,95.83
2018-08-07T04:50:48.710Z,95.43
2018-08-07T04:53:17.444Z,95.15
2018-08-07T04:55:46.235Z,95.07
2018-08-07T04:58:14.913Z,94.06
2018-08-07T05:00:43.785Z,93.75
2018-08-07T05:03:12.430Z,93.06
2018-08-07T05:05:41.047Z,92.79
2018-08-07T05:08:09.812Z,90.58
2018-08-07T05:10:39.340Z,89.44
2018-08-07T05:13:08.317Z,88.39
2018-08-07T05:15:37.223Z,86.04
2018-08-07T05:18:06.154Z,84.42
2018-08-07T05:20:35.008Z,83.76
2018-08-07T05:23:03.926Z,83.17
2018-08-07T05:25:32.752Z,82.61
2018-08-07T05:28:01.719Z,83.11
2018-08-07T05:30:30.548Z,82.04
2018-08-07T05:33:00.140Z,81.47
2018-08-07T05:35:29.421Z,80.85
2018-08-07T05:37:58.460Z,79.25
2018-08-07T05:40:28.005Z,77.51
2018-08-07T05:42:56.904Z,76.32
2018-08-07T05:45:26.299Z,75.44
2018-08-07T05:47:55.458Z,75.59
2018-08-07T05:50:24.482Z,75.17
2018-08-07T05:52:53.223Z,74.86
2018-08-07T05:55:22.208Z,74.30
2018-08-07T05:57:51.507Z,73.04
2018-08-07T06:00:21.032Z,71.06
2018-08-07T06:02:50.835Z,70.51
2018-08-07T06:05:19.716Z,68.96
2018-08-07T06:07:49.363Z,67.66
2018-08-07T06:10:18.359Z,64.75
2018-08-07T06:12:47.734Z,63.11
2018-08-07T06:15:17.404Z,62.24
2018-08-07T06:17:47.035Z,61.31
2018-08-07T06:20:16.298Z,61.95
2018-08-07T06:22:45.298Z,60.73
2018-08-07T06:25:14.078Z,59.64
2018-08-07T06:27:43.044Z,57.72
2018-08-07T06:30:17.751Z,58.46
2018-08-07T06:32:47.700Z,57.69
2018-08-07T06:35:16.999Z,57.21
2018-08-07T06:37:45.892Z,58.97
2018-08-07T06:40:14.964Z,59.88
2018-08-07T06:42:44.580Z,61.17
2018-08-07T06:45:15.009Z,61.95
2018-08-07T06:47:43.713Z,64.02
2018-08-07T06:50:15.794Z,65.00
2018-08-07T06:52:46.169Z,66.92
2018-08-07T06:55:15.172Z,67.87
2018-08-07T06:57:44.016Z,68.40
2018-08-07T07:00:20.460Z,68.79
2018-08-07T07:02:49.352Z,68.89
2018-08-07T07:05:18.200Z,69.50
2018-08-07T07:07:47.083Z,69.65
2018-08-07T07:10:16.307Z,70.34
2018-08-07T07:12:45.764Z,70.42
2018-08-07T07:15:15.496Z,70.25
2018-08-07T07:17:46.223Z,70.71
2018-08-07T07:20:16.235Z,70.21
2018-08-07T07:22:46.001Z,70.94
2018-08-07T07:25:15.718Z,70.54
2018-08-07T07:27:44.679Z,71.38
2018-08-07T07:30:21.775Z,70.89
2018-08-07T07:32:52.765Z,70.72
2018-08-07T07:35:21.425Z,70.72
2018-08-07T07:37:50.363Z,71.19
2018-08-07T07:40:19.549Z,70.34
2018-08-07T07:42:48.448Z,69.97
2018-08-07T07:45:18.545Z,70.55
2018-08-07T07:47:47.344Z,69.42
2018-08-07T07:50:18.686Z,70.12
2018-08-07T07:52:47.719Z,70.02
2018-08-07T07:55:17.350Z,69.75
2018-08-07T07:57:46.259Z,70.53
2018-08-07T08:00:25.830Z,71.30
2018-08-07T08:02:54.703Z,72.00
2018-08-07T08:05:24.746Z,71.59
2018-08-07T08:07:54.108Z,71.36
2018-08-07T08:10:23.049Z,71.17
2018-08-07T08:12:53.339Z,68.85
2018-08-07T08:15:22.411Z,69.08
2018-08-07T08:17:51.375Z,69.89
2018-08-07T08:20:22.439Z,69.02
2018-08-07T08:22:51.970Z,67.71
2018-08-07T08:25:21.574Z,64.42
2018-08-07T08:27:50.424Z,63.43
2018-08-07T08:30:19.485Z,60.58
2018-08-07T08:32:48.241Z,61.11
2018-08-07T08:35:19.204Z,59.20
2018-08-07T08:37:48.354Z,53.30
2018-08-07T08:40:19.561Z,47.54
2018-08-07T08:42:48.804Z,46.85
2018-08-07T08:45:18.899Z,42.59
2018-08-07T08:47:49.160Z,38.31
2018-08-07T08:50:19.355Z,35.99
2018-08-07T08:52:48.196Z,34.44
2018-08-07T08:55:17.260Z,33.26
2018-08-07T08:57:46.409Z,31.12
2018-08-07T09:00:27.166Z,31.31
2018-08-07T09:02:57.286Z,29.55
2018-08-07T09:05:26.540Z,29.20
2018-08-07T09:07:56.282Z,28.65
2018-08-07T09:10:28.474Z,27.19
2018-08-07T09:12:59.081Z,25.11
2018-08-07T09:15:28.216Z,24.89
2018-08-07T09:17:57.306Z,24.56
2018-08-07T09:20:27.926Z,26.97
2018-08-07T09:22:57.406Z,26.42
2018-08-07T09:25:27.769Z,25.13
2018-08-07T09:27:56.606Z,24.70
2018-08-07T09:30:27.919Z,24.05
2018-08-07T09:32:57.289Z,22.40
2018-08-07T09:35:26.436Z,24.56
2018-08-07T09:37:56.081Z,25.37
2018-08-07T09:40:25.497Z,25.05
2018-08-07T09:42:55.534Z,23.95
2018-08-07T09:45:27.241Z,21.57
2018-08-07T09:47:57.023Z,22.02
2018-08-07T09:50:26.155Z,20.43
2018-08-07T09:52:55.348Z,20.54
2018-08-07T09:55:25.057Z,19.88
2018-08-07T09:57:54.105Z,19.95
2018-08-07T10:00:28.404Z,18.73
2018-08-07T10:03:02.891Z,18.12
2018-08-07T10:05:33.229Z,19.12
2018-08-07T10:08:02.451Z,18.01
2018-08-07T10:10:31.738Z,17.85
2018-08-07T10:13:01.356Z,18.32
2018-08-07T10:15:31.157Z,18.92
2018-08-07T10:18:00.563Z,17.79
2018-08-07T10:20:29.551Z,19.00
2018-08-07T10:22:58.560Z,18.71
2018-08-07T10:25:27.788Z,18.26
2018-08-07T10:27:57.054Z,17.19
2018-08-07T10:30:27.344Z,16.41
2018-08-07T10:32:56.539Z,16.31
2018-08-07T10:35:25.610Z,15.75
2018-08-07T10:37:55.320Z,15.92
2018-08-07T10:40:26.084Z,16.11
2018-08-07T10:42:55.421Z,16.61
2018-08-07T10:45:25.780Z,16.33
2018-08-07T10:47:54.699Z,17.00
2018-08-07T10:50:29.973Z,18.47
2018-08-07T10:53:00.105Z,19.43
2018-08-07T10:55:29.121Z,20.58
2018-08-07T10:57:59.654Z,21.72
2018-08-07T11:00:30.699Z,22.72
2018-08-07T11:03:00.019Z,22.93
2018-08-07T11:05:29.685Z,23.49
2018-08-07T11:07:58.996Z,24.30
2018-08-07T11:10:28.691Z,25.13
2018-08-07T11:12:57.789Z,25.88
2018-08-07T11:15:35.585Z,27.41
2018-08-07T11:18:05.025Z,28.40
2018-08-07T11:20:34.744Z,28.08
2018-08-07T11:23:04.489Z,29.13
2018-08-07T11:25:34.086Z,29.97
2018-08-07T11:28:03.111Z,29.98
2018-08-07T11:30:32.515Z,30.50
2018-08-07T11:33:03.184Z,30.66
2018-08-07T11:35:32.466Z,32.02
2018-08-07T11:38:02.754Z,32.25
2018-08-07T11:40:31.908Z,32.90
2018-08-07T11:43:02.057Z,33.19
2018-08-07T11:45:32.174Z,34.22
2018-08-07T11:48:01.521Z,35.12
2018-08-07T11:50:32.871Z,35.26
2018-08-07T11:53:01.959Z,36.35
2018-08-07T11:55:31.047Z,36.18
2018-08-07T11:58:00.453Z,36.90
2018-08-07T12:00:37.186Z,37.01
2018-08-07T12:03:07.645Z,39.18
2018-08-07T12:05:36.801Z,41.28
2018-08-07T12:08:07.096Z,41.38
2018-08-07T12:10:36.337Z,41.42
2018-08-07T12:13:05.559Z,41.15
2018-08-07T12:15:34.540Z,42.24
2018-08-07T12:18:03.805Z,42.33
2018-08-07T12:20:33.090Z,43.11
2018-08-07T12:23:01.982Z,43.65
2018-08-07T12:25:31.624Z,44.41
2018-08-07T12:28:00.822Z,44.41
2018-08-07T12:30:30.990Z,44.21
2018-08-07T12:33:00.726Z,44.20
2018-08-07T12:35:29.725Z,44.76
2018-08-07T12:37:58.614Z,44.00
2018-08-07T12:40:29.572Z,43.95
2018-08-07T12:43:03.044Z,44.40
2018-08-07T12:45:32.131Z,46.38
2018-08-07T12:48:01.298Z,46.07
2018-08-07T12:50:30.590Z,46.44
2018-08-07T12:52:59.811Z,48.67
2018-08-07T12:55:29.066Z,49.40
2018-08-07T12:57:58.245Z,52.18
2018-08-07T13:00:29.392Z,52.39
2018-08-07T13:02:58.550Z,53.46
2018-08-07T13:05:27.678Z,54.57
2018-08-07T13:07:56.882Z,56.70
2018-08-07T13:10:26.362Z,56.92
2018-08-07T13:12:56.242Z,57.95
2018-08-07T13:15:25.280Z,58.31
2018-08-07T13:17:54.153Z,59.22
2018-08-07T13:20:23.063Z,60.78
2018-08-07T13:22:52.812Z,61.55
2018-08-07T13:25:22.785Z,62.68
2018-08-07T13:27:51.626Z,63.04
2018-08-07T13:30:23.947Z,64.57
2018-08-07T13:32:52.782Z,64.58
2018-08-07T13:35:22.395Z,65.62
2018-08-07T13:37:53.210Z,65.78
2018-08-07T13:40:23.535Z,65.54
2018-08-07T13:42:52.879Z,67.15
2018-08-07T13:45:24.721Z,68.05
2018-08-07T13:47:53.584Z,70.53
2018-08-07T13:50:23.951Z,72.05
2018-08-07T13:52:53.257Z,72.05
2018-08-07T13:55:23.103Z,71.34
2018-08-07T13:57:52.437Z,71.57
2018-08-07T14:00:25.314Z,72.55
2018-08-07T14:02:54.884Z,71.18
2018-08-07T14:05:24.272Z,70.49
2018-08-07T14:07:54.521Z,70.42
2018-08-07T14:10:26.192Z,71.16
2018-08-07T14:12:55.264Z,71.11
2018-08-07T14:15:25.716Z,67.96
2018-08-07T14:17:54.675Z,67.42
2018-08-07T14:20:23.811Z,67.79
2018-08-07T14:22:53.419Z,66.95
2018-08-07T14:25:24.885Z,66.27
2018-08-07T14:27:54.537Z,65.88
2018-08-07T14:30:24.739Z,64.69
2018-08-07T14:32:53.996Z,63.49
2018-08-07T14:35:23.311Z,62.94
2018-08-07T14:37:52.280Z,63.55
2018-08-07T14:40:22.632Z,64.81
2018-08-07T14:42:52.053Z,65.85
2018-08-07T14:45:23.324Z,66.42
2018-08-07T14:47:52.868Z,66.85
2018-08-07T14:50:23.405Z,67.28
2018-08-07T14:52:52.532Z,67.06
2018-08-07T14:55:21.892Z,67.96
2018-08-07T14:57:50.990Z,69.08
2018-08-07T15:00:26.229Z,69.62
2018-08-07T15:02:55.511Z,69.95
2018-08-07T15:05:24.572Z,69.03
2018-08-07T15:07:53.747Z,69.18
2018-08-07T15:10:23.832Z,69.03
2018-08-07T15:12:52.853Z,69.34
2018-08-07T15:15:24.434Z,68.20
2018-08-07T15:17:53.564Z,67.57
2018-08-07T15:20:24.273Z,68.94
2018-08-07T15:22:53.601Z,69.37
2018-08-07T15:25:22.857Z,68.25
2018-08-07T15:27:52.352Z,66.86
2018-08-07T15:30:22.643Z,67.11
2018-08-07T15:32:52.207Z,67.56
2018-08-07T15:35:22.293Z,66.47
2018-08-07T15:37:52.369Z,64.53
2018-08-07T15:40:22.089Z,64.77
2018-08-07T15:42:51.751Z,63.50
2018-08-07T15:45:22.164Z,62.34
2018-08-07T15:47:51.618Z,60.97
2018-08-07T15:50:22.311Z,61.35
2018-08-07T15:52:53.674Z,61.33
2018-08-07T15:55:24.811Z,62.28
2018-08-07T15:57:54.107Z,62.38
2018-08-07T16:00:26.358Z,63.59
2018-08-07T16:02:56.328Z,63.38
2018-08-07T16:05:25.516Z,63.85
2018-08-07T16:07:54.871Z,66.15
2018-08-07T16:10:24.108Z,66.41
2018-08-07T16:12:54.115Z,65.91
2018-08-07T16:15:23.329Z,65.34
2018-08-07T16:17:53.424Z,65.36
2018-08-07T16:20:23.533Z,63.65
2018-08-07T16:22:52.529Z,62.92
2018-08-07T16:25:23.268Z,61.50
2018-08-07T16:27:52.567Z,60.33
2018-08-07T16:30:26.487Z,60.11
2018-08-07T16:32:56.636Z,60.17
2018-08-07T16:35:25.958Z,60.10
2018-08-07T16:37:54.842Z,60.48
2018-08-07T16:40:24.802Z,61.32
2018-08-07T16:42:55.593Z,60.54
2018-08-07T16:45:25.529Z,59.86
2018-08-07T16:47:54.952Z,59.13
2018-08-07T16:50:26.945Z,59.85
2018-08-07T16:52:57.201Z,61.42
2018-08-07T16:55:27.535Z,60.82
2018-08-07T16:57:56.713Z,61.42
2018-08-07T17:00:25.967Z,61.50
2018-08-07T17:02:55.103Z,62.31
2018-08-07T17:05:24.302Z,61.46
2018-08-07T17:07:53.531Z,60.23
2018-08-07T17:10:25.841Z,60.24
2018-08-07T17:12:57.382Z,59.91
2018-08-07T17:15:27.654Z,62.00
2018-08-07T17:17:57.947Z,64.49
2018-08-07T17:20:27.491Z,63.37
2018-08-07T17:22:57.267Z,64.11
2018-08-07T17:25:28.148Z,63.48
2018-08-07T17:28:00.269Z,63.58
2018-08-07T17:30:30.554Z,64.00
2018-08-07T17:33:01.862Z,64.37
2018-08-07T17:35:31.374Z,67.77
2018-08-07T17:38:00.737Z,69.41
2018-08-07T17:40:30.701Z,69.20
2018-08-07T17:43:01.488Z,70.31
2018-08-07T17:45:31.039Z,73.56
2018-08-07T17:48:00.764Z,72.85
2018-08-07T17:50:30.076Z,72.58
2018-08-07T17:53:01.239Z,72.43
2018-08-07T17:55:31.309Z,72.53
2018-08-07T17:58:01.328Z,72.84
2018-08-07T18:00:31.019Z,73.24
2018-08-07T18:02:59.999Z,73.89
2018-08-07T18:05:29.123Z,75.31
2018-08-07T18:07:58.766Z,75.63
2018-08-07T18:10:28.351Z,75.49
2018-08-07T18:12:59.635Z,76.13
2018-08-07T18:15:29.122Z,76.26
2018-08-07T18:17:59.199Z,77.88
2018-08-07T18:20:28.911Z,78.11
2018-08-07T18:22:57.792Z,79.48
2018-08-07T18:25:27.791Z,79.17
2018-08-07T18:27:57.287Z,80.11
2018-08-07T18:30:26.249Z,79.81
2018-08-07T18:32:56.290Z,80.02
2018-08-07T18:35:26.926Z,80.25
2018-08-07T18:37:56.064Z,80.70
2018-08-07T18:40:24.969Z,80.46
2018-08-07T18:42:54.541Z,80.27
2018-08-07T18:45:23.402Z,80.37
2018-08-07T18:47:52.783Z,81.77
2018-08-07T18:50:23.492Z,82.16
2018-08-07T18:52:52.926Z,82.63
2018-08-07T18:55:22.059Z,83.55
2018-08-07T18:57:51.632Z,82.73
2018-08-07T19:00:22.973Z,83.11
2018-08-07T19:02:52.231Z,84.30
2018-08-07T19:05:22.923Z,84.50
2018-08-07T19:07:53.061Z,85.01
2018-08-07T19:10:22.381Z,84.43
2018-08-07T19:12:51.292Z,84.80
2018-08-07T19:15:20.819Z,86.30
2018-08-07T19:17:50.010Z,85.71
2018-08-07T19:20:20.270Z,86.14
2018-08-07T19:22:49.394Z,86.23
2018-08-07T19:25:18.733Z,86.24
2018-08-07T19:27:47.693Z,86.48
2018-08-07T19:30:18.137Z,86.66
2018-08-07T19:32:47.479Z,87.07
2018-08-07T19:35:16.227Z,87.46
2018-08-07T19:37:45.109Z,87.74
2018-08-07T19:40:15.547Z,88.33
2018-08-07T19:42:45.097Z,87.85
2018-08-07T19:45:14.588Z,88.81
2018-08-07T19:47:44.134Z,88.52
2018-08-07T19:50:14.491Z,89.37
2018-08-07T19:52:43.314Z,89.21
2018-08-07T19:55:15.394Z,88.58
2018-08-07T19:57:44.448Z,89.31
2018-08-07T20:00:16.636Z,89.68
2018-08-07T20:02:46.002Z,89.86
2018-08-07T20:05:15.067Z,90.61
2018-08-07T20:07:44.113Z,89.84
2018-08-07T20:10:14.464Z,90.03
2018-08-07T20:12:44.033Z,90.37
2018-08-07T20:15:20.782Z,90.61
2018-08-07T20:17:50.626Z,90.13
2018-08-07T20:20:19.645Z,91.29
2018-08-07T20:22:48.471Z,91.36
2018-08-07T20:25:17.330Z,91.08
2018-08-07T20:27:46.019Z,91.21
2018-08-07T20:30:18.935Z,91.21
2018-08-07T20:32:48.782Z,91.01
2018-08-07T20:35:17.524Z,91.37
2018-08-07T20:37:46.559Z,90.78
2018-08-07T20:40:19.613Z,91.16
2018-08-07T20:42:48.524Z,91.82
2018-08-07T20:45:18.084Z,91.37
2018-08-07T20:47:47.530Z,92.13
2018-08-07T20:50:20.778Z,91.94
2018-08-07T20:52:50.276Z,91.86
2018-08-07T20:55:19.189Z,92.22
2018-08-07T20:57:48.168Z,92.75
2018-08-07T21:00:20.678Z,93.08
2018-08-07T21:02:49.924Z,92.40
2018-08-07T21:05:18.809Z,92.83
2018-08-07T21:07:47.659Z,93.15
2018-08-07T21:10:18.122Z,92.93
2018-08-07T21:12:47.369Z,93.18
2018-08-07T21:15:16.282Z,93.78
2018-08-07T21:17:45.849Z,94.08
2018-08-07T21:20:17.148Z,93.52
2018-08-07T21:22:46.870Z,93.15
2018-08-07T21:25:18.537Z,93.87
2018-08-07T21:27:48.628Z,94.11
2018-08-07T21:30:19.934Z,94.58
2018-08-07T21:32:48.938Z,94.75
2018-08-07T21:35:17.820Z,95.02
2018-08-07T21:37:47.443Z,94.64
2018-08-07T21:40:19.536Z,94.77
2018-08-07T21:42:49.178Z,95.32
2018-08-07T21:45:18.144Z,95.34
2018-08-07T21:47:47.262Z,95.54
2018-08-07T21:50:18.619Z,95.23
2018-08-07T21:52:47.354Z,95.22
2018-08-07T21:55:18.374Z,95.00
2018-08-07T21:57:47.147Z,95.78
2018-08-07T22:00:37.619Z,95.90
2018-08-07T22:03:07.587Z,95.74
2018-08-07T22:05:36.409Z,95.98
2018-08-07T22:08:05.345Z,96.20
2018-08-07T22:10:34.188Z,96.26
2018-08-07T22:13:02.970Z,96.66
2018-08-07T22:15:31.979Z,96.40
2018-08-07T22:18:01.524Z,96.02
2018-08-07T22:20:30.470Z,96.30
2018-08-07T22:22:59.798Z,96.11
2018-08-07T22:25:29.019Z,96.30
2018-08-07T22:27:58.342Z,96.21
2018-08-07T22:30:27.223Z,96.49
2018-08-07T22:32:56.565Z,96.66
2018-08-07T22:35:25.515Z,96.44
2018-08-07T22:37:54.128Z,96.88
2018-08-07T22:40:22.950Z,96.61
2018-08-07T22:42:51.574Z,96.31
2018-08-07T22:45:21.041Z,96.22
2018-08-07T22:47:49.736Z,95.99
2018-08-07T22:50:19.383Z,96.24
2018-08-07T22:52:48.763Z,96.45
2018-08-07T22:55:18.758Z,96.79
2018-08-07T22:57:50.874Z,97.19
2018-08-07T23:00:21.284Z,96.96
2018-08-07T23:02:49.943Z,98.23
2018-08-07T23:05:19.169Z,97.84
2018-08-07T23:07:49.655Z,97.91
2018-08-07T23:10:20.829Z,97.79
2018-08-07T23:12:50.069Z,97.52
2018-08-07T23:15:20.285Z,98.04
2018-08-07T23:17:49.375Z,98.23
2018-08-07T23:20:19.932Z,98.30
2018-08-07T23:22:49.808Z,98.24
2018-08-07T23:25:18.493Z,98.24
2018-08-07T23:27:47.224Z,98.14
2018-08-07T23:30:17.580Z,98.25
2018-08-07T23:32:46.382Z,97.92
2018-08-07T23:35:16.169Z,97.51
2018-08-07T23:37:45.090Z,97.80
2018-08-07T23:40:14.806Z,97.59
2018-08-07T23:42:44.723Z,97.52
2018-08-07T23:45:14.673Z,98.19
2018-08-07T23:47:43.403Z,97.97
2018-08-07T23:50:13.200Z,97.58
2018-08-07T23:52:42.560Z,97.78
2018-08-07T23:55:11.304Z,98.22
2018-08-07T23:57:40.803Z,98.30
